sensor_id;sensor_type;location;lat;lon;timestamp;temperature;humidity
19168;DHT22;9716;53.114;18.040;2022-07-18T00:00:49;15.40;99.90
19168;DHT22;9716;53.114;18.040;2022-07-18T00:03:18;15.40;99.90
19168;DHT22;9716;53.114;18.040;2022-07-18T00:05:47;15.30;99.90
19168;DHT22;9716;53.114;18.040;2022-07-18T00:08:16;15.30;99.90
19168;DHT22;9716;53.114;18.040;2022-07-18T00:10:45;15.30;99.90
19168;DHT22;9716;53.114;18.040;2022-07-18T00:13:15;15.30;99.90
19168;DHT22;9716;53.114;18.040;2022-07-18T00:15:44;15.30;99.90
19168;DHT22;9716;53.114;18.040;2022-07-18T00:18:13;15.30;99.90
19168;DHT22;9716;53.114;18.040;2022-07-18T00:20:42;15.30;99.90
19168;DHT22;9716;53.114;18.040;2022-07-18T00:23:11;15.30;99.90
19168;DHT22;9716;53.114;18.040;2022-07-18T00:25:40;15.30;99.90
19168;DHT22;9716;53.114;18.040;2022-07-18T00:28:09;15.30;99.90
19168;DHT22;9716;53.114;18.040;2022-07-18T00:30:41;15.30;99.90
19168;DHT22;9716;53.114;18.040;2022-07-18T00:33:10;15.30;99.90
19168;DHT22;9716;53.114;18.040;2022-07-18T00:35:39;15.30;99.90
19168;DHT22;9716;53.114;18.040;2022-07-18T00:38:12;15.30;99.90
19168;DHT22;9716;53.114;18.040;2022-07-18T00:40:42;15.20;99.90
19168;DHT22;9716;53.114;18.040;2022-07-18T00:43:12;15.20;99.90
19168;DHT22;9716;53.114;18.040;2022-07-18T00:45:46;15.20;99.90
19168;DHT22;9716;53.114;18.040;2022-07-18T00:48:15;15.20;99.90
19168;DHT22;9716;53.114;18.040;2022-07-18T00:50:45;15.20;99.90
19168;DHT22;9716;53.114;18.040;2022-07-18T00:53:14;15.20;99.90
19168;DHT22;9716;53.114;18.040;2022-07-18T00:55:45;15.10;99.90
19168;DHT22;9716;53.114;18.040;2022-07-18T00:58:14;15.10;99.90
19168;DHT22;9716;53.114;18.040;2022-07-18T01:00:44;15.10;99.90
19168;DHT22;9716;53.114;18.040;2022-07-18T01:03:30;15.00;99.90
19168;DHT22;9716;53.114;18.040;2022-07-18T01:05:59;15.00;99.90
19168;DHT22;9716;53.114;18.040;2022-07-18T01:08:28;14.90;99.90
19168;DHT22;9716;53.114;18.040;2022-07-18T01:10:58;14.90;99.90
19168;DHT22;9716;53.114;18.040;2022-07-18T01:13:27;14.90;99.90
19168;DHT22;9716;53.114;18.040;2022-07-18T01:15:57;14.90;99.90
19168;DHT22;9716;53.114;18.040;2022-07-18T01:18:27;14.90;99.90
19168;DHT22;9716;53.114;18.040;2022-07-18T01:20:57;14.90;99.90
19168;DHT22;9716;53.114;18.040;2022-07-18T01:23:26;14.80;99.90
19168;DHT22;9716;53.114;18.040;2022-07-18T01:25:56;14.80;99.90
19168;DHT22;9716;53.114;18.040;2022-07-18T01:28:25;14.80;99.90
19168;DHT22;9716;53.114;18.040;2022-07-18T01:30:53;14.80;99.90
19168;DHT22;9716;53.114;18.040;2022-07-18T01:33:22;14.80;99.90
19168;DHT22;9716;53.114;18.040;2022-07-18T01:35:51;14.80;99.90
19168;DHT22;9716;53.114;18.040;2022-07-18T01:38:22;14.80;99.90
19168;DHT22;9716;53.114;18.040;2022-07-18T01:40:51;14.70;99.90
19168;DHT22;9716;53.114;18.040;2022-07-18T01:43:23;14.70;99.90
19168;DHT22;9716;53.114;18.040;2022-07-18T01:45:52;14.70;99.90
19168;DHT22;9716;53.114;18.040;2022-07-18T01:48:22;14.70;99.90
19168;DHT22;9716;53.114;18.040;2022-07-18T01:50:52;14.60;99.90
19168;DHT22;9716;53.114;18.040;2022-07-18T01:53:22;14.60;99.90
19168;DHT22;9716;53.114;18.040;2022-07-18T01:55:52;14.60;99.90
19168;DHT22;9716;53.114;18.040;2022-07-18T01:58:21;14.50;99.90
19168;DHT22;9716;53.114;18.040;2022-07-18T02:00:50;14.50;99.90
19168;DHT22;9716;53.114;18.040;2022-07-18T02:03:19;14.50;99.90
19168;DHT22;9716;53.114;18.040;2022-07-18T02:05:48;14.50;99.90
19168;DHT22;9716;53.114;18.040;2022-07-18T02:08:17;14.50;99.90
19168;DHT22;9716;53.114;18.040;2022-07-18T02:10:48;14.50;99.90
19168;DHT22;9716;53.114;18.040;2022-07-18T02:13:17;14.50;99.90
19168;DHT22;9716;53.114;18.040;2022-07-18T02:15:48;14.50;99.90
19168;DHT22;9716;53.114;18.040;2022-07-18T02:18:17;14.40;99.90
19168;DHT22;9716;53.114;18.040;2022-07-18T02:20:46;14.40;99.90
19168;DHT22;9716;53.114;18.040;2022-07-18T02:23:15;14.40;99.90
19168;DHT22;9716;53.114;18.040;2022-07-18T02:25:43;14.40;99.90
19168;DHT22;9716;53.114;18.040;2022-07-18T02:28:13;14.40;99.90
19168;DHT22;9716;53.114;18.040;2022-07-18T02:30:43;14.40;99.90
19168;DHT22;9716;53.114;18.040;2022-07-18T02:33:12;14.40;99.90
19168;DHT22;9716;53.114;18.040;2022-07-18T02:35:42;14.40;99.90
19168;DHT22;9716;53.114;18.040;2022-07-18T02:38:12;14.30;99.90
19168;DHT22;9716;53.114;18.040;2022-07-18T02:40:41;14.30;99.90
19168;DHT22;9716;53.114;18.040;2022-07-18T02:43:10;14.30;99.90
19168;DHT22;9716;53.114;18.040;2022-07-18T02:45:41;14.30;99.90
19168;DHT22;9716;53.114;18.040;2022-07-18T02:48:10;14.30;99.90
19168;DHT22;9716;53.114;18.040;2022-07-18T02:50:40;14.30;99.90
19168;DHT22;9716;53.114;18.040;2022-07-18T02:53:09;14.30;99.90
19168;DHT22;9716;53.114;18.040;2022-07-18T02:55:40;14.30;99.90
19168;DHT22;9716;53.114;18.040;2022-07-18T02:58:10;14.30;99.90
19168;DHT22;9716;53.114;18.040;2022-07-18T03:00:40;14.30;99.90
19168;DHT22;9716;53.114;18.040;2022-07-18T03:03:10;14.40;99.90
19168;DHT22;9716;53.114;18.040;2022-07-18T03:05:39;14.40;99.90
19168;DHT22;9716;53.114;18.040;2022-07-18T03:08:08;14.40;99.90
19168;DHT22;9716;53.114;18.040;2022-07-18T03:10:38;14.40;99.90
19168;DHT22;9716;53.114;18.040;2022-07-18T03:13:08;14.40;99.90
19168;DHT22;9716;53.114;18.040;2022-07-18T03:15:40;14.40;99.90
19168;DHT22;9716;53.114;18.040;2022-07-18T03:18:10;14.40;99.90
19168;DHT22;9716;53.114;18.040;2022-07-18T03:20:39;14.50;99.90
19168;DHT22;9716;53.114;18.040;2022-07-18T03:23:08;14.50;99.90
19168;DHT22;9716;53.114;18.040;2022-07-18T03:25:38;14.50;99.90
19168;DHT22;9716;53.114;18.040;2022-07-18T03:28:06;14.60;99.90
19168;DHT22;9716;53.114;18.040;2022-07-18T03:30:35;14.60;99.90
19168;DHT22;9716;53.114;18.040;2022-07-18T03:33:06;14.70;99.90
19168;DHT22;9716;53.114;18.040;2022-07-18T03:35:36;14.70;99.90
19168;DHT22;9716;53.114;18.040;2022-07-18T03:38:05;14.80;99.90
19168;DHT22;9716;53.114;18.040;2022-07-18T03:40:34;14.90;99.90
19168;DHT22;9716;53.114;18.040;2022-07-18T03:43:04;14.90;99.90
19168;DHT22;9716;53.114;18.040;2022-07-18T03:45:33;14.90;99.90
19168;DHT22;9716;53.114;18.040;2022-07-18T03:48:10;15.00;99.90
19168;DHT22;9716;53.114;18.040;2022-07-18T03:50:39;15.00;99.90
19168;DHT22;9716;53.114;18.040;2022-07-18T03:53:08;15.10;99.90
19168;DHT22;9716;53.114;18.040;2022-07-18T03:55:40;15.10;99.90
19168;DHT22;9716;53.114;18.040;2022-07-18T03:58:10;15.20;99.90
19168;DHT22;9716;53.114;18.040;2022-07-18T04:00:40;15.20;99.90
19168;DHT22;9716;53.114;18.040;2022-07-18T04:03:11;15.20;99.90
19168;DHT22;9716;53.114;18.040;2022-07-18T04:05:41;15.30;99.90
19168;DHT22;9716;53.114;18.040;2022-07-18T04:08:09;15.30;99.90
19168;DHT22;9716;53.114;18.040;2022-07-18T04:10:39;15.40;99.90
19168;DHT22;9716;53.114;18.040;2022-07-18T04:13:09;15.40;99.90
19168;DHT22;9716;53.114;18.040;2022-07-18T04:15:39;15.50;99.90
19168;DHT22;9716;53.114;18.040;2022-07-18T04:18:08;15.60;99.90
19168;DHT22;9716;53.114;18.040;2022-07-18T04:20:39;15.60;99.90
19168;DHT22;9716;53.114;18.040;2022-07-18T04:23:09;15.80;99.90
19168;DHT22;9716;53.114;18.040;2022-07-18T04:25:42;15.90;99.90
19168;DHT22;9716;53.114;18.040;2022-07-18T04:28:13;16.10;99.90
19168;DHT22;9716;53.114;18.040;2022-07-18T04:30:43;16.30;99.90
19168;DHT22;9716;53.114;18.040;2022-07-18T04:33:13;16.40;99.90
19168;DHT22;9716;53.114;18.040;2022-07-18T04:35:44;16.50;99.90
19168;DHT22;9716;53.114;18.040;2022-07-18T04:38:13;16.70;99.90
19168;DHT22;9716;53.114;18.040;2022-07-18T04:40:44;17.00;99.90
19168;DHT22;9716;53.114;18.040;2022-07-18T04:43:13;17.40;99.90
19168;DHT22;9716;53.114;18.040;2022-07-18T04:45:42;17.90;99.90
19168;DHT22;9716;53.114;18.040;2022-07-18T04:48:11;18.40;99.90
19168;DHT22;9716;53.114;18.040;2022-07-18T04:50:44;18.90;99.90
19168;DHT22;9716;53.114;18.040;2022-07-18T04:53:13;19.40;99.90
19168;DHT22;9716;53.114;18.040;2022-07-18T04:55:42;19.90;99.90
19168;DHT22;9716;53.114;18.040;2022-07-18T04:58:12;20.40;99.90
19168;DHT22;9716;53.114;18.040;2022-07-18T05:00:41;20.80;99.90
19168;DHT22;9716;53.114;18.040;2022-07-18T05:03:10;21.30;99.90
19168;DHT22;9716;53.114;18.040;2022-07-18T05:05:39;21.70;99.90
19168;DHT22;9716;53.114;18.040;2022-07-18T05:08:10;22.10;99.70
19168;DHT22;9716;53.114;18.040;2022-07-18T05:10:41;22.60;98.40
19168;DHT22;9716;53.114;18.040;2022-07-18T05:13:10;22.90;97.00
19168;DHT22;9716;53.114;18.040;2022-07-18T05:15:39;23.20;95.90
19168;DHT22;9716;53.114;18.040;2022-07-18T05:18:09;23.70;94.80
19168;DHT22;9716;53.114;18.040;2022-07-18T05:20:38;24.00;93.70
19168;DHT22;9716;53.114;18.040;2022-07-18T05:23:13;24.40;92.60
19168;DHT22;9716;53.114;18.040;2022-07-18T05:25:43;24.90;91.40
19168;DHT22;9716;53.114;18.040;2022-07-18T05:28:12;25.40;90.40
19168;DHT22;9716;53.114;18.040;2022-07-18T05:30:40;25.80;88.50
19168;DHT22;9716;53.114;18.040;2022-07-18T05:33:09;26.10;86.40
19168;DHT22;9716;53.114;18.040;2022-07-18T05:35:38;26.20;85.00
19168;DHT22;9716;53.114;18.040;2022-07-18T05:38:07;26.10;84.50
19168;DHT22;9716;53.114;18.040;2022-07-18T05:40:38;25.80;84.40
19168;DHT22;9716;53.114;18.040;2022-07-18T05:43:07;25.50;84.70
19168;DHT22;9716;53.114;18.040;2022-07-18T05:45:37;25.20;85.50
19168;DHT22;9716;53.114;18.040;2022-07-18T05:48:07;24.80;86.30
19168;DHT22;9716;53.114;18.040;2022-07-18T05:50:36;24.30;87.30
19168;DHT22;9716;53.114;18.040;2022-07-18T05:53:05;24.10;88.60
19168;DHT22;9716;53.114;18.040;2022-07-18T05:55:34;23.80;89.70
19168;DHT22;9716;53.114;18.040;2022-07-18T05:58:05;23.50;90.20
19168;DHT22;9716;53.114;18.040;2022-07-18T06:00:34;23.20;90.70
19168;DHT22;9716;53.114;18.040;2022-07-18T06:03:03;22.90;91.10
19168;DHT22;9716;53.114;18.040;2022-07-18T06:05:32;22.70;91.50
19168;DHT22;9716;53.114;18.040;2022-07-18T06:08:01;22.50;91.80
19168;DHT22;9716;53.114;18.040;2022-07-18T06:10:31;22.20;92.10
19168;DHT22;9716;53.114;18.040;2022-07-18T06:13:00;22.00;92.60
19168;DHT22;9716;53.114;18.040;2022-07-18T06:15:31;21.80;93.00
19168;DHT22;9716;53.114;18.040;2022-07-18T06:18:00;21.60;93.30
19168;DHT22;9716;53.114;18.040;2022-07-18T06:20:29;21.50;93.80
19168;DHT22;9716;53.114;18.040;2022-07-18T06:22:58;21.30;94.20
19168;DHT22;9716;53.114;18.040;2022-07-18T06:25:28;21.20;94.60
19168;DHT22;9716;53.114;18.040;2022-07-18T06:27:57;21.20;95.00
19168;DHT22;9716;53.114;18.040;2022-07-18T06:30:25;21.10;95.20
19168;DHT22;9716;53.114;18.040;2022-07-18T06:32:56;21.00;95.20
19168;DHT22;9716;53.114;18.040;2022-07-18T06:35:26;21.00;95.40
19168;DHT22;9716;53.114;18.040;2022-07-18T06:37:55;21.00;95.60
19168;DHT22;9716;53.114;18.040;2022-07-18T06:40:24;21.00;95.60
19168;DHT22;9716;53.114;18.040;2022-07-18T06:42:53;21.10;95.60
19168;DHT22;9716;53.114;18.040;2022-07-18T06:45:23;21.10;96.00
19168;DHT22;9716;53.114;18.040;2022-07-18T06:47:52;21.20;95.70
19168;DHT22;9716;53.114;18.040;2022-07-18T06:50:23;21.30;95.60
19168;DHT22;9716;53.114;18.040;2022-07-18T06:52:52;21.40;95.50
19168;DHT22;9716;53.114;18.040;2022-07-18T06:55:21;21.50;95.40
19168;DHT22;9716;53.114;18.040;2022-07-18T06:57:50;21.70;95.20
19168;DHT22;9716;53.114;18.040;2022-07-18T07:00:19;22.00;94.90
19168;DHT22;9716;53.114;18.040;2022-07-18T07:02:49;22.20;94.60
19168;DHT22;9716;53.114;18.040;2022-07-18T07:05:20;22.40;94.20
19168;DHT22;9716;53.114;18.040;2022-07-18T07:07:50;22.60;93.90
19168;DHT22;9716;53.114;18.040;2022-07-18T07:10:19;22.90;93.70
19168;DHT22;9716;53.114;18.040;2022-07-18T07:12:50;23.10;93.20
19168;DHT22;9716;53.114;18.040;2022-07-18T07:15:22;23.40;92.90
19168;DHT22;9716;53.114;18.040;2022-07-18T07:17:51;23.70;92.50
19168;DHT22;9716;53.114;18.040;2022-07-18T07:20:20;23.90;92.10
19168;DHT22;9716;53.114;18.040;2022-07-18T07:22:52;24.20;91.80
19168;DHT22;9716;53.114;18.040;2022-07-18T07:25:23;24.40;91.30
19168;DHT22;9716;53.114;18.040;2022-07-18T07:27:53;24.70;91.00
19168;DHT22;9716;53.114;18.040;2022-07-18T07:30:23;24.80;90.70
19168;DHT22;9716;53.114;18.040;2022-07-18T07:32:52;25.00;90.30
19168;DHT22;9716;53.114;18.040;2022-07-18T07:35:22;25.10;90.00
19168;DHT22;9716;53.114;18.040;2022-07-18T07:37:54;25.10;89.50
19168;DHT22;9716;53.114;18.040;2022-07-18T07:40:24;25.30;89.20
19168;DHT22;9716;53.114;18.040;2022-07-18T07:43:05;25.30;88.80
19168;DHT22;9716;53.114;18.040;2022-07-18T07:45:34;25.40;88.10
19168;DHT22;9716;53.114;18.040;2022-07-18T07:48:04;25.40;87.90
19168;DHT22;9716;53.114;18.040;2022-07-18T07:50:33;25.30;87.80
19168;DHT22;9716;53.114;18.040;2022-07-18T07:53:04;25.30;87.80
19168;DHT22;9716;53.114;18.040;2022-07-18T07:55:33;25.20;87.60
19168;DHT22;9716;53.114;18.040;2022-07-18T07:58:02;25.20;87.80
19168;DHT22;9716;53.114;18.040;2022-07-18T08:00:32;25.20;87.50
19168;DHT22;9716;53.114;18.040;2022-07-18T08:03:03;25.20;87.50
19168;DHT22;9716;53.114;18.040;2022-07-18T08:05:34;25.10;87.80
19168;DHT22;9716;53.114;18.040;2022-07-18T08:08:06;25.10;87.80
19168;DHT22;9716;53.114;18.040;2022-07-18T08:10:35;25.20;87.40
19168;DHT22;9716;53.114;18.040;2022-07-18T08:13:11;25.20;87.20
19168;DHT22;9716;53.114;18.040;2022-07-18T08:15:40;25.20;87.30
19168;DHT22;9716;53.114;18.040;2022-07-18T08:18:09;25.10;87.20
19168;DHT22;9716;53.114;18.040;2022-07-18T08:20:38;25.10;87.20
19168;DHT22;9716;53.114;18.040;2022-07-18T08:23:10;25.10;87.10
19168;DHT22;9716;53.114;18.040;2022-07-18T08:25:42;25.00;87.10
19168;DHT22;9716;53.114;18.040;2022-07-18T08:28:12;25.10;87.50
19168;DHT22;9716;53.114;18.040;2022-07-18T08:30:44;25.10;87.30
19168;DHT22;9716;53.114;18.040;2022-07-18T08:33:13;25.20;86.80
19168;DHT22;9716;53.114;18.040;2022-07-18T08:35:42;25.30;87.50
19168;DHT22;9716;53.114;18.040;2022-07-18T08:38:12;25.40;86.10
19168;DHT22;9716;53.114;18.040;2022-07-18T08:40:42;25.60;85.80
19168;DHT22;9716;53.114;18.040;2022-07-18T08:43:12;25.90;85.00
19168;DHT22;9716;53.114;18.040;2022-07-18T08:45:51;26.00;84.20
19168;DHT22;9716;53.114;18.040;2022-07-18T08:48:21;26.10;83.40
19168;DHT22;9716;53.114;18.040;2022-07-18T08:50:50;26.20;83.20
19168;DHT22;9716;53.114;18.040;2022-07-18T08:53:20;26.30;82.80
19168;DHT22;9716;53.114;18.040;2022-07-18T08:55:49;26.30;82.20
19168;DHT22;9716;53.114;18.040;2022-07-18T08:58:18;26.40;82.00
19168;DHT22;9716;53.114;18.040;2022-07-18T09:01:07;26.40;81.20
19168;DHT22;9716;53.114;18.040;2022-07-18T09:03:36;26.60;81.10
19168;DHT22;9716;53.114;18.040;2022-07-18T09:06:07;26.90;80.30
19168;DHT22;9716;53.114;18.040;2022-07-18T09:08:39;27.10;79.80
19168;DHT22;9716;53.114;18.040;2022-07-18T09:11:09;27.30;79.40
19168;DHT22;9716;53.114;18.040;2022-07-18T09:13:59;27.40;78.90
19168;DHT22;9716;53.114;18.040;2022-07-18T09:16:28;27.70;78.40
19168;DHT22;9716;53.114;18.040;2022-07-18T09:19:05;27.90;77.70
19168;DHT22;9716;53.114;18.040;2022-07-18T09:21:36;28.10;77.10
19168;DHT22;9716;53.114;18.040;2022-07-18T09:24:08;28.40;76.50
19168;DHT22;9716;53.114;18.040;2022-07-18T09:26:38;28.60;75.40
19168;DHT22;9716;53.114;18.040;2022-07-18T09:29:08;28.70;75.10
19168;DHT22;9716;53.114;18.040;2022-07-18T09:31:56;28.80;74.30
19168;DHT22;9716;53.114;18.040;2022-07-18T09:34:42;29.00;73.70
19168;DHT22;9716;53.114;18.040;2022-07-18T09:37:11;29.40;73.40
19168;DHT22;9716;53.114;18.040;2022-07-18T09:39:42;29.70;72.40
19168;DHT22;9716;53.114;18.040;2022-07-18T09:42:14;29.70;71.50
19168;DHT22;9716;53.114;18.040;2022-07-18T09:44:57;29.70;71.10
19168;DHT22;9716;53.114;18.040;2022-07-18T09:47:25;29.70;71.10
19168;DHT22;9716;53.114;18.040;2022-07-18T09:49:55;29.90;70.20
19168;DHT22;9716;53.114;18.040;2022-07-18T09:52:23;30.10;70.00
19168;DHT22;9716;53.114;18.040;2022-07-18T09:55:04;30.30;69.30
19168;DHT22;9716;53.114;18.040;2022-07-18T09:57:34;30.50;68.70
19168;DHT22;9716;53.114;18.040;2022-07-18T10:00:05;30.60;68.40
19168;DHT22;9716;53.114;18.040;2022-07-18T10:02:35;30.70;67.70
19168;DHT22;9716;53.114;18.040;2022-07-18T10:05:05;30.80;68.00
19168;DHT22;9716;53.114;18.040;2022-07-18T10:07:37;31.00;67.70
19168;DHT22;9716;53.114;18.040;2022-07-18T10:10:08;31.20;66.80
19168;DHT22;9716;53.114;18.040;2022-07-18T10:12:40;31.20;66.20
19168;DHT22;9716;53.114;18.040;2022-07-18T10:15:10;31.20;66.10
19168;DHT22;9716;53.114;18.040;2022-07-18T10:17:39;31.20;65.90
19168;DHT22;9716;53.114;18.040;2022-07-18T10:20:10;31.00;66.40
19168;DHT22;9716;53.114;18.040;2022-07-18T10:22:39;31.00;66.50
19168;DHT22;9716;53.114;18.040;2022-07-18T10:25:12;30.90;66.70
19168;DHT22;9716;53.114;18.040;2022-07-18T10:27:48;30.80;66.90
19168;DHT22;9716;53.114;18.040;2022-07-18T10:30:29;30.70;67.00
19168;DHT22;9716;53.114;18.040;2022-07-18T10:32:59;30.50;67.40
19168;DHT22;9716;53.114;18.040;2022-07-18T10:36:00;30.30;67.60
19168;DHT22;9716;53.114;18.040;2022-07-18T10:38:38;30.20;67.80
19168;DHT22;9716;53.114;18.040;2022-07-18T10:41:13;30.20;67.90
19168;DHT22;9716;53.114;18.040;2022-07-18T10:43:44;30.10;67.90
19168;DHT22;9716;53.114;18.040;2022-07-18T10:46:13;29.90;67.90
19168;DHT22;9716;53.114;18.040;2022-07-18T10:49:03;29.80;68.40
19168;DHT22;9716;53.114;18.040;2022-07-18T10:51:33;29.60;68.10
19168;DHT22;9716;53.114;18.040;2022-07-18T10:54:12;29.60;68.30
19168;DHT22;9716;53.114;18.040;2022-07-18T10:57:07;29.50;68.80
19168;DHT22;9716;53.114;18.040;2022-07-18T10:59:58;29.40;69.70
19168;DHT22;9716;53.114;18.040;2022-07-18T11:02:35;29.50;69.10
19168;DHT22;9716;53.114;18.040;2022-07-18T11:05:33;29.50;69.10
19168;DHT22;9716;53.114;18.040;2022-07-18T11:08:20;29.50;69.00
19168;DHT22;9716;53.114;18.040;2022-07-18T11:11:13;29.50;68.80
19168;DHT22;9716;53.114;18.040;2022-07-18T11:13:45;29.50;69.10
19168;DHT22;9716;53.114;18.040;2022-07-18T11:16:20;29.40;68.80
19168;DHT22;9716;53.114;18.040;2022-07-18T11:19:16;29.20;69.10
19168;DHT22;9716;53.114;18.040;2022-07-18T11:21:56;29.10;69.80
19168;DHT22;9716;53.114;18.040;2022-07-18T11:24:26;29.10;69.50
19168;DHT22;9716;53.114;18.040;2022-07-18T11:26:55;28.90;70.10
19168;DHT22;9716;53.114;18.040;2022-07-18T11:29:26;29.00;70.20
19168;DHT22;9716;53.114;18.040;2022-07-18T11:31:57;29.00;70.90
19168;DHT22;9716;53.114;18.040;2022-07-18T11:34:26;29.10;71.00
19168;DHT22;9716;53.114;18.040;2022-07-18T11:37:12;29.20;70.20
19168;DHT22;9716;53.114;18.040;2022-07-18T11:39:42;29.30;69.90
19168;DHT22;9716;53.114;18.040;2022-07-18T11:42:10;29.10;69.90
19168;DHT22;9716;53.114;18.040;2022-07-18T11:44:42;29.00;70.30
19168;DHT22;9716;53.114;18.040;2022-07-18T11:47:12;29.00;70.70
19168;DHT22;9716;53.114;18.040;2022-07-18T11:49:54;29.00;70.80
19168;DHT22;9716;53.114;18.040;2022-07-18T11:52:23;29.10;70.80
19168;DHT22;9716;53.114;18.040;2022-07-18T11:54:59;29.30;70.40
19168;DHT22;9716;53.114;18.040;2022-07-18T11:57:29;29.40;69.80
19168;DHT22;9716;53.114;18.040;2022-07-18T12:00:00;29.40;69.50
19168;DHT22;9716;53.114;18.040;2022-07-18T12:03:05;29.40;69.40
19168;DHT22;9716;53.114;18.040;2022-07-18T12:05:54;29.50;69.60
19168;DHT22;9716;53.114;18.040;2022-07-18T12:08:31;29.70;68.60
19168;DHT22;9716;53.114;18.040;2022-07-18T12:11:13;29.70;68.60
19168;DHT22;9716;53.114;18.040;2022-07-18T12:13:45;29.80;68.60
19168;DHT22;9716;53.114;18.040;2022-07-18T12:16:27;29.90;68.90
19168;DHT22;9716;53.114;18.040;2022-07-18T12:18:57;29.70;68.00
19168;DHT22;9716;53.114;18.040;2022-07-18T12:21:38;29.60;67.90
19168;DHT22;9716;53.114;18.040;2022-07-18T12:24:24;29.30;68.60
19168;DHT22;9716;53.114;18.040;2022-07-18T12:27:14;29.20;69.10
19168;DHT22;9716;53.114;18.040;2022-07-18T12:30:03;29.00;68.80
19168;DHT22;9716;53.114;18.040;2022-07-18T12:32:45;29.00;69.10
19168;DHT22;9716;53.114;18.040;2022-07-18T12:35:17;29.00;69.30
19168;DHT22;9716;53.114;18.040;2022-07-18T12:37:57;29.00;69.40
19168;DHT22;9716;53.114;18.040;2022-07-18T12:40:37;28.90;69.20
19168;DHT22;9716;53.114;18.040;2022-07-18T12:43:08;29.00;68.80
19168;DHT22;9716;53.114;18.040;2022-07-18T12:45:38;28.90;68.80
19168;DHT22;9716;53.114;18.040;2022-07-18T12:48:10;28.80;68.80
19168;DHT22;9716;53.114;18.040;2022-07-18T12:50:41;28.80;68.40
19168;DHT22;9716;53.114;18.040;2022-07-18T12:53:10;28.80;68.50
19168;DHT22;9716;53.114;18.040;2022-07-18T12:55:39;28.70;68.20
19168;DHT22;9716;53.114;18.040;2022-07-18T12:58:08;28.60;68.30
19168;DHT22;9716;53.114;18.040;2022-07-18T13:00:38;28.50;68.60
19168;DHT22;9716;53.114;18.040;2022-07-18T13:03:08;28.30;69.10
19168;DHT22;9716;53.114;18.040;2022-07-18T13:05:38;28.20;69.40
19168;DHT22;9716;53.114;18.040;2022-07-18T13:08:07;28.10;69.40
19168;DHT22;9716;53.114;18.040;2022-07-18T13:10:38;28.20;69.60
19168;DHT22;9716;53.114;18.040;2022-07-18T13:13:09;28.10;69.40
19168;DHT22;9716;53.114;18.040;2022-07-18T13:15:38;28.00;69.40
19168;DHT22;9716;53.114;18.040;2022-07-18T13:18:08;27.90;69.50
19168;DHT22;9716;53.114;18.040;2022-07-18T13:20:37;27.90;69.70
19168;DHT22;9716;53.114;18.040;2022-07-18T13:23:11;27.80;69.60
19168;DHT22;9716;53.114;18.040;2022-07-18T13:25:42;28.00;71.00
19168;DHT22;9716;53.114;18.040;2022-07-18T13:28:11;28.20;70.10
19168;DHT22;9716;53.114;18.040;2022-07-18T13:30:41;28.40;69.70
19168;DHT22;9716;53.114;18.040;2022-07-18T13:33:12;28.60;69.50
19168;DHT22;9716;53.114;18.040;2022-07-18T13:35:41;28.90;69.40
19168;DHT22;9716;53.114;18.040;2022-07-18T13:38:09;29.10;69.00
19168;DHT22;9716;53.114;18.040;2022-07-18T13:40:38;29.40;68.40
19168;DHT22;9716;53.114;18.040;2022-07-18T13:43:07;29.60;67.90
19168;DHT22;9716;53.114;18.040;2022-07-18T13:45:36;29.70;67.70
19168;DHT22;9716;53.114;18.040;2022-07-18T13:48:05;29.80;67.50
19168;DHT22;9716;53.114;18.040;2022-07-18T13:50:36;29.70;67.40
19168;DHT22;9716;53.114;18.040;2022-07-18T13:53:04;29.70;67.30
19168;DHT22;9716;53.114;18.040;2022-07-18T13:55:33;29.80;67.40
19168;DHT22;9716;53.114;18.040;2022-07-18T13:58:05;29.70;67.30
19168;DHT22;9716;53.114;18.040;2022-07-18T14:00:35;29.70;67.40
19168;DHT22;9716;53.114;18.040;2022-07-18T14:03:03;29.70;67.30
19168;DHT22;9716;53.114;18.040;2022-07-18T14:05:35;29.60;67.20
19168;DHT22;9716;53.114;18.040;2022-07-18T14:08:04;29.60;67.20
19168;DHT22;9716;53.114;18.040;2022-07-18T14:10:34;29.60;67.40
19168;DHT22;9716;53.114;18.040;2022-07-18T14:13:03;29.60;67.50
19168;DHT22;9716;53.114;18.040;2022-07-18T14:15:32;29.60;67.30
19168;DHT22;9716;53.114;18.040;2022-07-18T14:18:01;29.70;67.10
19168;DHT22;9716;53.114;18.040;2022-07-18T14:20:32;29.70;67.10
19168;DHT22;9716;53.114;18.040;2022-07-18T14:23:02;29.80;66.70
19168;DHT22;9716;53.114;18.040;2022-07-18T14:25:31;29.90;66.70
19168;DHT22;9716;53.114;18.040;2022-07-18T14:28:00;30.00;66.60
19168;DHT22;9716;53.114;18.040;2022-07-18T14:30:29;30.10;66.50
19168;DHT22;9716;53.114;18.040;2022-07-18T14:32:58;30.10;66.30
19168;DHT22;9716;53.114;18.040;2022-07-18T14:35:27;30.20;66.20
19168;DHT22;9716;53.114;18.040;2022-07-18T14:37:56;30.20;66.20
19168;DHT22;9716;53.114;18.040;2022-07-18T14:40:26;30.20;66.00
19168;DHT22;9716;53.114;18.040;2022-07-18T14:42:55;30.20;65.50
19168;DHT22;9716;53.114;18.040;2022-07-18T14:45:24;30.10;65.60
19168;DHT22;9716;53.114;18.040;2022-07-18T14:47:59;30.10;65.90
19168;DHT22;9716;53.114;18.040;2022-07-18T14:50:28;30.00;66.00
19168;DHT22;9716;53.114;18.040;2022-07-18T14:52:57;30.00;66.10
19168;DHT22;9716;53.114;18.040;2022-07-18T14:55:27;29.90;66.30
19168;DHT22;9716;53.114;18.040;2022-07-18T14:57:56;29.80;66.60
19168;DHT22;9716;53.114;18.040;2022-07-18T15:00:25;29.70;67.80
19168;DHT22;9716;53.114;18.040;2022-07-18T15:02:54;29.60;67.20
19168;DHT22;9716;53.114;18.040;2022-07-18T15:05:23;29.50;67.50
19168;DHT22;9716;53.114;18.040;2022-07-18T15:07:51;29.40;67.60
19168;DHT22;9716;53.114;18.040;2022-07-18T15:10:20;29.40;67.80
19168;DHT22;9716;53.114;18.040;2022-07-18T15:12:51;29.30;67.90
19168;DHT22;9716;53.114;18.040;2022-07-18T15:15:20;29.20;68.00
19168;DHT22;9716;53.114;18.040;2022-07-18T15:17:48;29.20;68.20
19168;DHT22;9716;53.114;18.040;2022-07-18T15:20:18;29.20;68.20
19168;DHT22;9716;53.114;18.040;2022-07-18T15:22:47;29.20;68.40
19168;DHT22;9716;53.114;18.040;2022-07-18T15:25:16;29.20;68.40
19168;DHT22;9716;53.114;18.040;2022-07-18T15:27:46;29.20;68.40
19168;DHT22;9716;53.114;18.040;2022-07-18T15:30:17;29.10;68.30
19168;DHT22;9716;53.114;18.040;2022-07-18T15:33:06;29.00;68.40
19168;DHT22;9716;53.114;18.040;2022-07-18T15:35:35;29.00;68.80
19168;DHT22;9716;53.114;18.040;2022-07-18T15:38:04;28.80;68.90
19168;DHT22;9716;53.114;18.040;2022-07-18T15:40:34;28.70;69.30
19168;DHT22;9716;53.114;18.040;2022-07-18T15:43:03;28.60;69.70
19168;DHT22;9716;53.114;18.040;2022-07-18T15:45:34;28.50;70.10
19168;DHT22;9716;53.114;18.040;2022-07-18T15:48:05;28.40;70.30
19168;DHT22;9716;53.114;18.040;2022-07-18T15:50:34;28.10;70.50
19168;DHT22;9716;53.114;18.040;2022-07-18T15:53:03;28.10;71.10
19168;DHT22;9716;53.114;18.040;2022-07-18T15:55:33;27.90;71.30